sensor_id;sensor_type;location;lat;lon;timestamp;P1;durP1;ratioP1;P2;durP2;ratioP2
39454;SDS011;25155;41.890;23.446;2022-09-09T00:00:29;5.10;;;4.43;;
39454;SDS011;25155;41.890;23.446;2022-09-09T00:03:04;5.15;;;4.53;;
39454;SDS011;25155;41.890;23.446;2022-09-09T00:05:38;6.80;;;6.10;;
39454;SDS011;25155;41.890;23.446;2022-09-09T00:08:16;8.75;;;7.85;;
39454;SDS011;25155;41.890;23.446;2022-09-09T00:10:48;9.82;;;8.88;;
39454;SDS011;25155;41.890;23.446;2022-09-09T00:13:25;10.23;;;9.23;;
39454;SDS011;25155;41.890;23.446;2022-09-09T00:16:01;8.02;;;7.22;;
39454;SDS011;25155;41.890;23.446;2022-09-09T00:18:44;8.25;;;7.45;;
39454;SDS011;25155;41.890;23.446;2022-09-09T00:21:19;6.72;;;6.10;;
39454;SDS011;25155;41.890;23.446;2022-09-09T00:23:54;5.60;;;4.90;;
39454;SDS011;25155;41.890;23.446;2022-09-09T00:26:22;6.28;;;5.30;;
39454;SDS011;25155;41.890;23.446;2022-09-09T00:29:00;5.13;;;4.45;;
39454;SDS011;25155;41.890;23.446;2022-09-09T00:31:32;5.65;;;4.93;;
39454;SDS011;25155;41.890;23.446;2022-09-09T00:34:02;7.57;;;6.78;;
39454;SDS011;25155;41.890;23.446;2022-09-09T00:36:36;8.35;;;7.55;;
39454;SDS011;25155;41.890;23.446;2022-09-09T00:39:05;7.35;;;6.60;;
39454;SDS011;25155;41.890;23.446;2022-09-09T00:41:44;6.22;;;4.90;;
39454;SDS011;25155;41.890;23.446;2022-09-09T00:44:25;6.00;;;5.32;;
39454;SDS011;25155;41.890;23.446;2022-09-09T00:47:03;5.43;;;4.72;;
39454;SDS011;25155;41.890;23.446;2022-09-09T00:49:43;5.15;;;4.22;;
39454;SDS011;25155;41.890;23.446;2022-09-09T00:52:23;4.70;;;3.90;;
39454;SDS011;25155;41.890;23.446;2022-09-09T00:55:03;4.95;;;4.20;;
39454;SDS011;25155;41.890;23.446;2022-09-09T00:57:37;4.00;;;3.53;;
39454;SDS011;25155;41.890;23.446;2022-09-09T01:00:17;4.03;;;3.33;;
39454;SDS011;25155;41.890;23.446;2022-09-09T01:02:53;4.65;;;3.53;;
39454;SDS011;25155;41.890;23.446;2022-09-09T01:05:33;4.75;;;3.67;;
39454;SDS011;25155;41.890;23.446;2022-09-09T01:08:09;5.22;;;4.28;;
39454;SDS011;25155;41.890;23.446;2022-09-09T01:10:44;4.50;;;3.72;;
39454;SDS011;25155;41.890;23.446;2022-09-09T01:13:20;5.35;;;3.67;;
39454;SDS011;25155;41.890;23.446;2022-09-09T01:15:51;8.68;;;6.47;;
39454;SDS011;25155;41.890;23.446;2022-09-09T01:18:21;7.07;;;6.38;;
39454;SDS011;25155;41.890;23.446;2022-09-09T01:20:57;7.28;;;6.10;;
39454;SDS011;25155;41.890;23.446;2022-09-09T01:23:43;7.45;;;5.40;;
39454;SDS011;25155;41.890;23.446;2022-09-09T01:26:22;6.07;;;5.45;;
39454;SDS011;25155;41.890;23.446;2022-09-09T01:28:53;5.57;;;4.97;;
39454;SDS011;25155;41.890;23.446;2022-09-09T01:31:22;6.35;;;5.13;;
39454;SDS011;25155;41.890;23.446;2022-09-09T01:33:57;6.85;;;6.15;;
39454;SDS011;25155;41.890;23.446;2022-09-09T01:36:27;6.00;;;5.38;;
39454;SDS011;25155;41.890;23.446;2022-09-09T01:39:01;5.70;;;5.10;;
39454;SDS011;25155;41.890;23.446;2022-09-09T01:41:30;5.60;;;4.70;;
39454;SDS011;25155;41.890;23.446;2022-09-09T01:43:58;7.90;;;7.10;;
39454;SDS011;25155;41.890;23.446;2022-09-09T01:46:26;7.28;;;6.57;;
39454;SDS011;25155;41.890;23.446;2022-09-09T01:48:55;6.03;;;5.38;;
39454;SDS011;25155;41.890;23.446;2022-09-09T01:51:25;5.70;;;4.85;;
39454;SDS011;25155;41.890;23.446;2022-09-09T01:53:54;5.50;;;4.90;;
39454;SDS011;25155;41.890;23.446;2022-09-09T01:56:25;7.10;;;5.07;;
39454;SDS011;25155;41.890;23.446;2022-09-09T01:59:05;6.97;;;6.28;;
39454;SDS011;25155;41.890;23.446;2022-09-09T02:01:51;7.10;;;6.40;;
39454;SDS011;25155;41.890;23.446;2022-09-09T02:04:34;6.50;;;5.80;;
39454;SDS011;25155;41.890;23.446;2022-09-09T02:07:06;5.15;;;4.50;;
39454;SDS011;25155;41.890;23.446;2022-09-09T02:09:42;4.78;;;4.13;;
39454;SDS011;25155;41.890;23.446;2022-09-09T02:12:18;4.80;;;3.90;;
39454;SDS011;25155;41.890;23.446;2022-09-09T02:14:50;6.43;;;5.78;;
39454;SDS011;25155;41.890;23.446;2022-09-09T02:17:23;6.82;;;6.13;;
39454;SDS011;25155;41.890;23.446;2022-09-09T02:19:54;5.70;;;5.03;;
39454;SDS011;25155;41.890;23.446;2022-09-09T02:22:26;6.03;;;4.78;;
39454;SDS011;25155;41.890;23.446;2022-09-09T02:24:57;5.28;;;4.40;;
39454;SDS011;25155;41.890;23.446;2022-09-09T02:27:27;5.43;;;4.72;;
39454;SDS011;25155;41.890;23.446;2022-09-09T02:29:56;4.85;;;3.90;;
39454;SDS011;25155;41.890;23.446;2022-09-09T02:32:27;4.95;;;3.85;;
39454;SDS011;25155;41.890;23.446;2022-09-09T02:34:58;4.25;;;3.60;;
39454;SDS011;25155;41.890;23.446;2022-09-09T02:37:30;6.80;;;5.97;;
39454;SDS011;25155;41.890;23.446;2022-09-09T02:40:02;6.70;;;5.97;;
39454;SDS011;25155;41.890;23.446;2022-09-09T02:42:31;6.07;;;5.45;;
39454;SDS011;25155;41.890;23.446;2022-09-09T02:44:58;6.13;;;4.95;;
39454;SDS011;25155;41.890;23.446;2022-09-09T02:47:29;6.07;;;4.45;;
39454;SDS011;25155;41.890;23.446;2022-09-09T02:52:49;4.50;;;3.85;;
39454;SDS011;25155;41.890;23.446;2022-09-09T02:55:28;4.88;;;4.10;;
39454;SDS011;25155;41.890;23.446;2022-09-09T02:58:06;6.97;;;5.80;;
39454;SDS011;25155;41.890;23.446;2022-09-09T03:03:03;9.35;;;7.78;;
39454;SDS011;25155;41.890;23.446;2022-09-09T03:05:31;7.93;;;6.82;;
39454;SDS011;25155;41.890;23.446;2022-09-09T03:07:58;5.95;;;5.22;;
39454;SDS011;25155;41.890;23.446;2022-09-09T03:10:26;5.30;;;4.53;;
39454;SDS011;25155;41.890;23.446;2022-09-09T03:12:53;11.15;;;7.43;;
39454;SDS011;25155;41.890;23.446;2022-09-09T03:15:22;7.30;;;6.60;;
39454;SDS011;25155;41.890;23.446;2022-09-09T03:17:54;7.38;;;6.35;;
39454;SDS011;25155;41.890;23.446;2022-09-09T03:20:22;7.60;;;6.63;;
39454;SDS011;25155;41.890;23.446;2022-09-09T03:22:51;9.13;;;6.60;;
39454;SDS011;25155;41.890;23.446;2022-09-09T03:25:19;7.57;;;6.50;;
39454;SDS011;25155;41.890;23.446;2022-09-09T03:27:49;5.85;;;5.07;;
39454;SDS011;25155;41.890;23.446;2022-09-09T03:30:19;5.10;;;4.50;;
39454;SDS011;25155;41.890;23.446;2022-09-09T03:32:49;4.90;;;4.07;;
39454;SDS011;25155;41.890;23.446;2022-09-09T03:35:16;7.90;;;6.97;;
39454;SDS011;25155;41.890;23.446;2022-09-09T03:37:44;8.30;;;7.50;;
39454;SDS011;25155;41.890;23.446;2022-09-09T03:40:12;13.90;;;7.82;;
39454;SDS011;25155;41.890;23.446;2022-09-09T03:42:40;9.32;;;7.45;;
39454;SDS011;25155;41.890;23.446;2022-09-09T03:45:09;7.63;;;6.30;;
39454;SDS011;25155;41.890;23.446;2022-09-09T03:47:37;6.57;;;5.53;;
39454;SDS011;25155;41.890;23.446;2022-09-09T03:50:06;6.13;;;4.55;;
39454;SDS011;25155;41.890;23.446;2022-09-09T03:52:36;6.75;;;5.45;;
39454;SDS011;25155;41.890;23.446;2022-09-09T03:55:04;6.20;;;4.72;;
39454;SDS011;25155;41.890;23.446;2022-09-09T03:57:33;5.28;;;4.50;;
39454;SDS011;25155;41.890;23.446;2022-09-09T04:00:02;6.10;;;4.72;;
39454;SDS011;25155;41.890;23.446;2022-09-09T04:02:31;6.18;;;4.95;;
39454;SDS011;25155;41.890;23.446;2022-09-09T04:04:58;6.18;;;4.93;;
39454;SDS011;25155;41.890;23.446;2022-09-09T04:07:27;6.60;;;4.93;;
39454;SDS011;25155;41.890;23.446;2022-09-09T04:09:55;6.05;;;4.68;;
39454;SDS011;25155;41.890;23.446;2022-09-09T04:12:22;13.13;;;10.90;;
39454;SDS011;25155;41.890;23.446;2022-09-09T04:14:50;9.55;;;8.23;;
39454;SDS011;25155;41.890;23.446;2022-09-09T04:17:18;13.27;;;10.57;;
39454;SDS011;25155;41.890;23.446;2022-09-09T04:19:45;11.55;;;8.85;;
39454;SDS011;25155;41.890;23.446;2022-09-09T04:22:13;13.15;;;9.65;;
39454;SDS011;25155;41.890;23.446;2022-09-09T04:24:42;11.45;;;7.95;;
39454;SDS011;25155;41.890;23.446;2022-09-09T04:27:10;9.45;;;7.45;;
39454;SDS011;25155;41.890;23.446;2022-09-09T04:29:37;9.45;;;6.13;;
39454;SDS011;25155;41.890;23.446;2022-09-09T04:32:05;6.15;;;4.82;;
39454;SDS011;25155;41.890;23.446;2022-09-09T04:34:32;10.05;;;7.63;;
39454;SDS011;25155;41.890;23.446;2022-09-09T04:36:59;10.20;;;8.02;;
39454;SDS011;25155;41.890;23.446;2022-09-09T04:39:27;10.80;;;8.57;;
39454;SDS011;25155;41.890;23.446;2022-09-09T04:41:56;15.60;;;9.85;;
39454;SDS011;25155;41.890;23.446;2022-09-09T04:44:23;14.73;;;9.70;;
39454;SDS011;25155;41.890;23.446;2022-09-09T04:46:50;13.45;;;10.07;;
39454;SDS011;25155;41.890;23.446;2022-09-09T04:49:18;11.63;;;8.45;;
39454;SDS011;25155;41.890;23.446;2022-09-09T04:51:46;8.43;;;6.57;;
39454;SDS011;25155;41.890;23.446;2022-09-09T04:54:15;10.10;;;7.68;;
39454;SDS011;25155;41.890;23.446;2022-09-09T04:56:43;15.88;;;13.27;;
39454;SDS011;25155;41.890;23.446;2022-09-09T04:59:12;20.08;;;13.32;;
39454;SDS011;25155;41.890;23.446;2022-09-09T05:01:40;17.95;;;12.55;;
39454;SDS011;25155;41.890;23.446;2022-09-09T05:04:07;13.25;;;9.57;;
39454;SDS011;25155;41.890;23.446;2022-09-09T05:06:36;12.50;;;8.82;;
39454;SDS011;25155;41.890;23.446;2022-09-09T05:09:03;23.58;;;14.68;;
39454;SDS011;25155;41.890;23.446;2022-09-09T05:11:31;26.70;;;15.80;;
39454;SDS011;25155;41.890;23.446;2022-09-09T05:14:02;43.83;;;23.70;;
39454;SDS011;25155;41.890;23.446;2022-09-09T05:16:31;48.22;;;24.90;;
39454;SDS011;25155;41.890;23.446;2022-09-09T05:18:58;38.35;;;22.23;;
39454;SDS011;25155;41.890;23.446;2022-09-09T05:21:28;29.13;;;16.75;;
39454;SDS011;25155;41.890;23.446;2022-09-09T05:23:56;45.17;;;24.75;;
39454;SDS011;25155;41.890;23.446;2022-09-09T05:26:23;39.53;;;20.83;;
39454;SDS011;25155;41.890;23.446;2022-09-09T05:28:51;26.90;;;16.40;;
39454;SDS011;25155;41.890;23.446;2022-09-09T05:31:18;39.20;;;23.48;;
39454;SDS011;25155;41.890;23.446;2022-09-09T05:33:47;32.25;;;20.58;;
39454;SDS011;25155;41.890;23.446;2022-09-09T05:36:16;23.77;;;16.17;;
39454;SDS011;25155;41.890;23.446;2022-09-09T05:38:45;22.05;;;14.27;;
39454;SDS011;25155;41.890;23.446;2022-09-09T05:41:14;20.08;;;13.13;;
39454;SDS011;25155;41.890;23.446;2022-09-09T05:43:42;16.90;;;11.45;;
39454;SDS011;25155;41.890;23.446;2022-09-09T05:46:12;19.73;;;12.18;;
39454;SDS011;25155;41.890;23.446;2022-09-09T05:48:41;34.25;;;19.15;;
39454;SDS011;25155;41.890;23.446;2022-09-09T05:51:13;30.02;;;19.67;;
39454;SDS011;25155;41.890;23.446;2022-09-09T05:53:42;21.65;;;15.20;;
39454;SDS011;25155;41.890;23.446;2022-09-09T05:56:11;18.48;;;13.98;;
39454;SDS011;25155;41.890;23.446;2022-09-09T05:58:40;13.38;;;10.55;;
39454;SDS011;25155;41.890;23.446;2022-09-09T06:01:10;12.63;;;9.70;;
39454;SDS011;25155;41.890;23.446;2022-09-09T06:03:39;11.93;;;10.02;;
39454;SDS011;25155;41.890;23.446;2022-09-09T06:06:08;10.20;;;7.55;;
39454;SDS011;25155;41.890;23.446;2022-09-09T06:20:36;11.85;;;10.65;;
39454;SDS011;25155;41.890;23.446;2022-09-09T06:23:03;15.93;;;14.23;;
39454;SDS011;25155;41.890;23.446;2022-09-09T06:25:31;19.58;;;16.10;;
39454;SDS011;25155;41.890;23.446;2022-09-09T06:27:59;13.82;;;12.27;;
39454;SDS011;25155;41.890;23.446;2022-09-09T06:30:27;17.88;;;15.98;;
39454;SDS011;25155;41.890;23.446;2022-09-09T06:32:55;14.82;;;13.23;;
39454;SDS011;25155;41.890;23.446;2022-09-09T06:35:23;16.38;;;14.40;;
39454;SDS011;25155;41.890;23.446;2022-09-09T06:37:52;13.95;;;12.48;;
39454;SDS011;25155;41.890;23.446;2022-09-09T06:40:19;14.98;;;13.38;;
39454;SDS011;25155;41.890;23.446;2022-09-09T06:42:47;16.33;;;14.15;;
39454;SDS011;25155;41.890;23.446;2022-09-09T06:45:14;13.23;;;10.77;;
39454;SDS011;25155;41.890;23.446;2022-09-09T06:47:42;18.17;;;15.65;;
39454;SDS011;25155;41.890;23.446;2022-09-09T06:50:09;21.48;;;17.33;;
39454;SDS011;25155;41.890;23.446;2022-09-09T06:52:37;18.77;;;16.23;;
39454;SDS011;25155;41.890;23.446;2022-09-09T06:55:07;22.10;;;19.38;;
39454;SDS011;25155;41.890;23.446;2022-09-09T06:57:34;22.00;;;17.83;;
39454;SDS011;25155;41.890;23.446;2022-09-09T07:00:02;22.42;;;18.42;;
39454;SDS011;25155;41.890;23.446;2022-09-09T07:02:30;20.90;;;17.83;;
39454;SDS011;25155;41.890;23.446;2022-09-09T07:04:57;20.67;;;17.52;;
39454;SDS011;25155;41.890;23.446;2022-09-09T07:07:24;18.55;;;16.10;;
39454;SDS011;25155;41.890;23.446;2022-09-09T07:09:52;15.85;;;12.90;;
39454;SDS011;25155;41.890;23.446;2022-09-09T07:12:21;15.52;;;13.80;;
39454;SDS011;25155;41.890;23.446;2022-09-09T07:14:49;18.15;;;14.88;;
39454;SDS011;25155;41.890;23.446;2022-09-09T07:17:16;15.02;;;13.43;;
39454;SDS011;25155;41.890;23.446;2022-09-09T07:19:44;21.38;;;16.85;;
39454;SDS011;25155;41.890;23.446;2022-09-09T07:22:12;25.27;;;20.13;;
39454;SDS011;25155;41.890;23.446;2022-09-09T07:24:40;21.35;;;19.15;;
39454;SDS011;25155;41.890;23.446;2022-09-09T07:27:10;19.90;;;17.70;;
39454;SDS011;25155;41.890;23.446;2022-09-09T07:29:39;23.80;;;18.73;;
39454;SDS011;25155;41.890;23.446;2022-09-09T07:32:06;21.77;;;18.90;;
39454;SDS011;25155;41.890;23.446;2022-09-09T07:34:34;22.20;;;19.27;;
39454;SDS011;25155;41.890;23.446;2022-09-09T07:37:01;22.90;;;19.40;;
39454;SDS011;25155;41.890;23.446;2022-09-09T07:39:28;22.13;;;17.70;;
39454;SDS011;25155;41.890;23.446;2022-09-09T07:41:56;23.00;;;19.17;;
39454;SDS011;25155;41.890;23.446;2022-09-09T07:44:24;20.48;;;16.85;;
39454;SDS011;25155;41.890;23.446;2022-09-09T07:46:54;23.00;;;18.67;;
39454;SDS011;25155;41.890;23.446;2022-09-09T07:49:21;18.45;;;16.65;;
39454;SDS011;25155;41.890;23.446;2022-09-09T07:51:49;18.60;;;16.33;;
39454;SDS011;25155;41.890;23.446;2022-09-09T07:54:17;17.15;;;15.40;;
39454;SDS011;25155;41.890;23.446;2022-09-09T07:56:48;13.68;;;12.25;;
39454;SDS011;25155;41.890;23.446;2022-09-09T07:59:16;16.63;;;14.85;;
39454;SDS011;25155;41.890;23.446;2022-09-09T08:01:44;17.85;;;15.18;;
39454;SDS011;25155;41.890;23.446;2022-09-09T08:04:16;13.65;;;11.82;;
39454;SDS011;25155;41.890;23.446;2022-09-09T08:06:45;15.32;;;13.40;;
39454;SDS011;25155;41.890;23.446;2022-09-09T08:09:14;16.98;;;13.02;;
39454;SDS011;25155;41.890;23.446;2022-09-09T08:11:42;13.75;;;12.35;;
39454;SDS011;25155;41.890;23.446;2022-09-09T08:14:11;12.45;;;11.13;;
39454;SDS011;25155;41.890;23.446;2022-09-09T08:16:40;15.98;;;12.98;;
39454;SDS011;25155;41.890;23.446;2022-09-09T08:19:09;11.90;;;10.00;;
39454;SDS011;25155;41.890;23.446;2022-09-09T08:21:38;15.10;;;12.00;;
39454;SDS011;25155;41.890;23.446;2022-09-09T08:24:08;11.57;;;10.38;;
39454;SDS011;25155;41.890;23.446;2022-09-09T08:26:37;14.82;;;11.63;;
39454;SDS011;25155;41.890;23.446;2022-09-09T08:29:07;11.73;;;10.43;;
39454;SDS011;25155;41.890;23.446;2022-09-09T08:31:37;10.55;;;9.52;;
39454;SDS011;25155;41.890;23.446;2022-09-09T08:34:06;10.68;;;9.57;;
39454;SDS011;25155;41.890;23.446;2022-09-09T08:36:35;11.00;;;9.23;;
39454;SDS011;25155;41.890;23.446;2022-09-09T08:39:05;13.65;;;10.60;;
39454;SDS011;25155;41.890;23.446;2022-09-09T08:41:44;11.68;;;8.38;;
39454;SDS011;25155;41.890;23.446;2022-09-09T08:44:28;11.77;;;8.93;;
39454;SDS011;25155;41.890;23.446;2022-09-09T08:47:06;10.52;;;8.75;;
39454;SDS011;25155;41.890;23.446;2022-09-09T08:49:56;10.27;;;9.15;;
39454;SDS011;25155;41.890;23.446;2022-09-09T08:52:37;9.45;;;8.02;;
39454;SDS011;25155;41.890;23.446;2022-09-09T08:55:23;8.73;;;7.43;;
39454;SDS011;25155;41.890;23.446;2022-09-09T08:57:55;8.75;;;7.88;;
39454;SDS011;25155;41.890;23.446;2022-09-09T09:03:00;10.10;;;8.55;;
39454;SDS011;25155;41.890;23.446;2022-09-09T09:08:14;6.85;;;6.15;;
39454;SDS011;25155;41.890;23.446;2022-09-09T09:10:54;9.73;;;8.68;;
39454;SDS011;25155;41.890;23.446;2022-09-09T09:13:26;9.20;;;7.65;;
39454;SDS011;25155;41.890;23.446;2022-09-09T09:16:02;9.23;;;8.05;;
39454;SDS011;25155;41.890;23.446;2022-09-09T09:18:42;9.18;;;8.10;;
39454;SDS011;25155;41.890;23.446;2022-09-09T09:21:11;7.85;;;7.03;;
39454;SDS011;25155;41.890;23.446;2022-09-09T09:23:45;11.50;;;8.32;;
39454;SDS011;25155;41.890;23.446;2022-09-09T09:26:22;7.90;;;7.10;;
39454;SDS011;25155;41.890;23.446;2022-09-09T09:28:54;8.15;;;7.30;;
39454;SDS011;25155;41.890;23.446;2022-09-09T09:31:23;7.57;;;6.63;;
39454;SDS011;25155;41.890;23.446;2022-09-09T09:33:53;6.13;;;5.50;;
39454;SDS011;25155;41.890;23.446;2022-09-09T09:36:24;7.88;;;7.07;;
39454;SDS011;25155;41.890;23.446;2022-09-09T09:39:00;9.73;;;6.88;;
39454;SDS011;25155;41.890;23.446;2022-09-09T09:41:32;8.50;;;6.82;;
39454;SDS011;25155;41.890;23.446;2022-09-09T09:44:04;9.20;;;6.78;;
39454;SDS011;25155;41.890;23.446;2022-09-09T09:46:32;7.03;;;5.38;;
39454;SDS011;25155;41.890;23.446;2022-09-09T09:49:00;6.63;;;5.93;;
39454;SDS011;25155;41.890;23.446;2022-09-09T09:51:31;7.65;;;5.68;;
39454;SDS011;25155;41.890;23.446;2022-09-09T09:56:50;7.55;;;5.68;;
39454;SDS011;25155;41.890;23.446;2022-09-09T09:59:19;9.52;;;5.88;;
39454;SDS011;25155;41.890;23.446;2022-09-09T10:01:48;7.07;;;6.18;;
39454;SDS011;25155;41.890;23.446;2022-09-09T10:04:16;7.57;;;5.75;;
39454;SDS011;25155;41.890;23.446;2022-09-09T10:06:46;6.38;;;5.28;;
39454;SDS011;25155;41.890;23.446;2022-09-09T10:09:23;7.35;;;5.97;;
39454;SDS011;25155;41.890;23.446;2022-09-09T10:11:55;7.05;;;5.60;;
39454;SDS011;25155;41.890;23.446;2022-09-09T10:14:30;9.50;;;5.78;;
39454;SDS011;25155;41.890;23.446;2022-09-09T10:17:09;6.95;;;6.20;;
39454;SDS011;25155;41.890;23.446;2022-09-09T10:19:50;6.82;;;5.43;;
39454;SDS011;25155;41.890;23.446;2022-09-09T10:22:27;7.18;;;6.00;;
39454;SDS011;25155;41.890;23.446;2022-09-09T10:31:20;6.53;;;4.75;;
39454;SDS011;25155;41.890;23.446;2022-09-09T10:34:00;10.20;;;6.28;;
39454;SDS011;25155;41.890;23.446;2022-09-09T10:36:33;8.20;;;6.20;;
39454;SDS011;25155;41.890;23.446;2022-09-09T10:39:03;7.95;;;5.35;;
39454;SDS011;25155;41.890;23.446;2022-09-09T10:41:38;8.43;;;6.20;;
39454;SDS011;25155;41.890;23.446;2022-09-09T10:44:20;5.72;;;4.80;;
39454;SDS011;25155;41.890;23.446;2022-09-09T10:50:05;7.90;;;5.20;;
39454;SDS011;25155;41.890;23.446;2022-09-09T10:52:45;6.70;;;4.82;;
39454;SDS011;25155;41.890;23.446;2022-09-09T10:55:19;5.15;;;4.00;;
39454;SDS011;25155;41.890;23.446;2022-09-09T10:57:51;8.88;;;6.10;;
39454;SDS011;25155;41.890;23.446;2022-09-09T11:00:23;7.05;;;5.95;;
39454;SDS011;25155;41.890;23.446;2022-09-09T11:02:53;7.35;;;5.80;;
39454;SDS011;25155;41.890;23.446;2022-09-09T11:05:24;8.02;;;6.32;;
39454;SDS011;25155;41.890;23.446;2022-09-09T11:07:57;7.88;;;5.07;;
39454;SDS011;25155;41.890;23.446;2022-09-09T11:10:29;5.22;;;4.50;;
39454;SDS011;25155;41.890;23.446;2022-09-09T11:13:09;5.60;;;4.32;;
39454;SDS011;25155;41.890;23.446;2022-09-09T11:15:44;4.97;;;4.10;;
39454;SDS011;25155;41.890;23.446;2022-09-09T11:18:17;8.23;;;5.80;;
39454;SDS011;25155;41.890;23.446;2022-09-09T11:20:48;5.85;;;4.45;;
39454;SDS011;25155;41.890;23.446;2022-09-09T11:23:32;6.47;;;5.32;;
39454;SDS011;25155;41.890;23.446;2022-09-09T11:26:06;5.90;;;4.72;;
39454;SDS011;25155;41.890;23.446;2022-09-09T11:28:42;8.35;;;4.78;;
39454;SDS011;25155;41.890;23.446;2022-09-09T11:31:32;5.32;;;4.45;;
39454;SDS011;25155;41.890;23.446;2022-09-09T11:34:13;5.93;;;4.00;;
39454;SDS011;25155;41.890;23.446;2022-09-09T11:37:05;6.93;;;4.50;;
39454;SDS011;25155;41.890;23.446;2022-09-09T11:42:46;7.15;;;4.80;;
39454;SDS011;25155;41.890;23.446;2022-09-09T11:45:23;6.82;;;4.72;;
39454;SDS011;25155;41.890;23.446;2022-09-09T11:47:55;8.20;;;4.75;;
39454;SDS011;25155;41.890;23.446;2022-09-09T11:50:28;8.60;;;4.60;;
39454;SDS011;25155;41.890;23.446;2022-09-09T11:53:04;5.30;;;4.20;;
39454;SDS011;25155;41.890;23.446;2022-09-09T11:55:48;9.13;;;4.80;;
39454;SDS011;25155;41.890;23.446;2022-09-09T11:58:33;8.55;;;4.63;;
39454;SDS011;25155;41.890;23.446;2022-09-09T12:01:26;10.27;;;5.35;;
39454;SDS011;25155;41.890;23.446;2022-09-09T12:16:30;6.88;;;4.00;;
39454;SDS011;25155;41.890;23.446;2022-09-09T12:19:03;7.63;;;4.70;;
39454;SDS011;25155;41.890;23.446;2022-09-09T12:21:34;8.32;;;4.35;;
39454;SDS011;25155;41.890;23.446;2022-09-09T12:24:05;6.68;;;4.00;;
39454;SDS011;25155;41.890;23.446;2022-09-09T12:26:37;7.95;;;4.00;;
39454;SDS011;25155;41.890;23.446;2022-09-09T12:29:12;7.38;;;4.32;;
39454;SDS011;25155;41.890;23.446;2022-09-09T12:31:51;10.20;;;4.45;;
39454;SDS011;25155;41.890;23.446;2022-09-09T12:34:32;7.85;;;4.50;;
39454;SDS011;25155;41.890;23.446;2022-09-09T12:37:06;11.35;;;4.60;;
39454;SDS011;25155;41.890;23.446;2022-09-09T12:39:44;8.77;;;4.13;;
39454;SDS011;25155;41.890;23.446;2022-09-09T12:42:16;10.73;;;4.60;;
39454;SDS011;25155;41.890;23.446;2022-09-09T12:44:51;8.25;;;4.50;;
39454;SDS011;25155;41.890;23.446;2022-09-09T12:47:22;6.93;;;3.90;;
39454;SDS011;25155;41.890;23.446;2022-09-09T12:49:54;8.60;;;4.15;;
39454;SDS011;25155;41.890;23.446;2022-09-09T12:52:24;10.57;;;4.28;;
39454;SDS011;25155;41.890;23.446;2022-09-09T12:54:57;7.72;;;4.32;;
39454;SDS011;25155;41.890;23.446;2022-09-09T12:57:29;8.63;;;4.63;;
39454;SDS011;25155;41.890;23.446;2022-09-09T13:00:12;8.05;;;4.18;;
39454;SDS011;25155;41.890;23.446;2022-09-09T13:05:18;9.05;;;3.85;;
39454;SDS011;25155;41.890;23.446;2022-09-09T13:07:47;9.82;;;4.30;;
39454;SDS011;25155;41.890;23.446;2022-09-09T13:10:19;7.53;;;3.72;;
39454;SDS011;25155;41.890;23.446;2022-09-09T13:12:52;8.95;;;3.80;;
39454;SDS011;25155;41.890;23.446;2022-09-09T13:15:21;9.48;;;3.90;;
39454;SDS011;25155;41.890;23.446;2022-09-09T13:17:54;11.52;;;4.18;;
39454;SDS011;25155;41.890;23.446;2022-09-09T13:20:26;9.25;;;4.10;;
39454;SDS011;25155;41.890;23.446;2022-09-09T13:22:56;8.70;;;4.05;;
39454;SDS011;25155;41.890;23.446;2022-09-09T13:25:24;8.55;;;3.92;;
39454;SDS011;25155;41.890;23.446;2022-09-09T13:27:58;8.13;;;3.92;;
39454;SDS011;25155;41.890;23.446;2022-09-09T13:30:28;6.00;;;3.53;;
39454;SDS011;25155;41.890;23.446;2022-09-09T13:35:59;11.25;;;3.97;;
39454;SDS011;25155;41.890;23.446;2022-09-09T13:38:31;10.02;;;3.88;;
39454;SDS011;25155;41.890;23.446;2022-09-09T13:41:03;8.32;;;4.03;;
39454;SDS011;25155;41.890;23.446;2022-09-09T13:43:34;9.20;;;3.63;;
39454;SDS011;25155;41.890;23.446;2022-09-09T13:46:04;7.00;;;3.42;;
39454;SDS011;25155;41.890;23.446;2022-09-09T13:48:53;6.85;;;3.80;;
39454;SDS011;25155;41.890;23.446;2022-09-09T13:51:26;6.18;;;3.40;;
39454;SDS011;25155;41.890;23.446;2022-09-09T13:53:59;9.05;;;3.80;;
39454;SDS011;25155;41.890;23.446;2022-09-09T13:56:27;8.10;;;3.90;;
39454;SDS011;25155;41.890;23.446;2022-09-09T13:58:54;8.73;;;3.90;;
39454;SDS011;25155;41.890;23.446;2022-09-09T14:01:23;4.72;;;2.80;;
39454;SDS011;25155;41.890;23.446;2022-09-09T14:03:53;11.48;;;5.07;;
39454;SDS011;25155;41.890;23.446;2022-09-09T14:06:20;6.80;;;3.30;;
39454;SDS011;25155;41.890;23.446;2022-09-09T14:08:50;6.47;;;3.45;;
39454;SDS011;25155;41.890;23.446;2022-09-09T14:11:20;10.38;;;4.13;;
39454;SDS011;25155;41.890;23.446;2022-09-09T14:13:48;5.63;;;3.20;;
39454;SDS011;25155;41.890;23.446;2022-09-09T14:16:16;9.73;;;4.22;;
39454;SDS011;25155;41.890;23.446;2022-09-09T14:18:44;5.85;;;3.20;;
39454;SDS011;25155;41.890;23.446;2022-09-09T14:21:12;8.63;;;3.78;;
39454;SDS011;25155;41.890;23.446;2022-09-09T14:23:41;7.13;;;4.10;;
39454;SDS011;25155;41.890;23.446;2022-09-09T14:26:10;7.70;;;3.65;;
39454;SDS011;25155;41.890;23.446;2022-09-09T14:28:38;10.40;;;4.05;;
39454;SDS011;25155;41.890;23.446;2022-09-09T14:31:06;8.05;;;3.60;;
39454;SDS011;25155;41.890;23.446;2022-09-09T14:33:35;10.20;;;3.75;;
39454;SDS011;25155;41.890;23.446;2022-09-09T14:36:03;9.70;;;3.85;;
39454;SDS011;25155;41.890;23.446;2022-09-09T14:38:32;6.40;;;3.65;;
39454;SDS011;25155;41.890;23.446;2022-09-09T14:41:04;7.32;;;3.50;;
39454;SDS011;25155;41.890;23.446;2022-09-09T14:43:33;8.10;;;3.88;;
39454;SDS011;25155;41.890;23.446;2022-09-09T14:46:04;5.03;;;3.30;;
39454;SDS011;25155;41.890;23.446;2022-09-09T14:48:32;6.63;;;3.65;;
39454;SDS011;25155;41.890;23.446;2022-09-09T14:51:04;5.88;;;3.83;;
39454;SDS011;25155;41.890;23.446;2022-09-09T14:53:34;6.20;;;3.80;;
39454;SDS011;25155;41.890;23.446;2022-09-09T14:56:05;4.90;;;3.38;;
39454;SDS011;25155;41.890;23.446;2022-09-09T14:58:36;7.13;;;4.50;;
39454;SDS011;25155;41.890;23.446;2022-09-09T15:01:05;6.47;;;4.15;;
39454;SDS011;25155;41.890;23.446;2022-09-09T15:03:35;6.53;;;4.75;;
39454;SDS011;25155;41.890;23.446;2022-09-09T15:06:06;8.82;;;4.72;;
39454;SDS011;25155;41.890;23.446;2022-09-09T15:08:35;6.40;;;4.50;;
39454;SDS011;25155;41.890;23.446;2022-09-09T15:11:03;7.20;;;4.57;;
39454;SDS011;25155;41.890;23.446;2022-09-09T15:13:33;9.23;;;4.60;;
39454;SDS011;25155;41.890;23.446;2022-09-09T15:16:07;7.22;;;4.40;;
39454;SDS011;25155;41.890;23.446;2022-09-09T15:18:36;10.98;;;4.70;;
39454;SDS011;25155;41.890;23.446;2022-09-09T15:21:05;6.95;;;4.45;;
39454;SDS011;25155;41.890;23.446;2022-09-09T15:23:33;6.15;;;4.32;;
39454;SDS011;25155;41.890;23.446;2022-09-09T15:26:02;7.20;;;4.55;;
39454;SDS011;25155;41.890;23.446;2022-09-09T15:28:30;6.68;;;3.72;;
39454;SDS011;25155;41.890;23.446;2022-09-09T15:30:59;7.22;;;3.60;;
39454;SDS011;25155;41.890;23.446;2022-09-09T15:33:34;7.60;;;3.78;;
39454;SDS011;25155;41.890;23.446;2022-09-09T15:36:12;6.97;;;3.90;;
39454;SDS011;25155;41.890;23.446;2022-09-09T15:38:40;8.00;;;3.75;;
39454;SDS011;25155;41.890;23.446;2022-09-09T15:41:09;5.57;;;3.50;;
39454;SDS011;25155;41.890;23.446;2022-09-09T15:43:36;10.90;;;4.15;;
39454;SDS011;25155;41.890;23.446;2022-09-09T15:46:14;9.45;;;4.13;;